Gregorio Di Stefano

Olheiro - Genoa
3 Abr 2027
Sábado
Processo

Personalidade

Adaptabilidade (12) Ambição (5) Controvérsia (7) Lealdade (5) Pressão (16) Profissionalismo (14) Espírito Esportivo (19) Temperamento (16)

Perfil

Estilo de Treinamento Democrático
Licença Continental C
Determinação 14
Gestão de Pessoas 11
Motivação 7
Disciplina 7
Satisfação no Trabalho
100%
Fadiga
0%
Função Olheiro
Salário 56.0K p/s
Contrato 14.03.2030

Desempenho

Comportamento Bom
Eficácia do Treinamento
41%
Desenvolvimento do Jogador
65%
Prevenção de Lesões
65%
Implementação Tática
30%

Eventos Recentes

Avaliou um jogador agora
Avaliou um jogador agora
Participou de uma reunião de recrutamento agora
Participou de uma reunião de recrutamento agora
Avaliou um jogador agora
Avaliou um jogador agora
Avaliou um jogador 7d atrás
Avaliou um jogador 7d atrás

Monitorando agora

100
Jogador Clube Status Habilidade Confiança Observado Última observação Último voto
Stanislav Biblyk Chaika Ativo 102 / 100 40% 3 02.04.2027 -
Marcos Cuenca Zaragoza Ativo 111 / 105 40% 1 02.04.2027 -
Francesco Petito Dolomiti Bellunesi Ativo 90 / 90 40% 1 02.04.2027 -
Jonathan Rowe Bologna Ativo 130 / 139 40% 6 01.04.2027 -
Jakub Adkonis Lechia Ativo 97 / 94 40% 3 01.04.2027 -
Patryk Szwedzik Ruch Ativo 94 / 110 40% 1 01.04.2027 -
Charlie Tasker Brighton Ativo 99 / 106 40% 1 01.04.2027 -
Juan Pablo De la Reta Maipú Ativo 105 / 119 40% 1 01.04.2027 -
Martim Cunha Porto Ativo 99 / 112 40% 2 31.03.2027 -
Simone Kosijer Triestina Ativo 95 / 111 40% 2 31.03.2027 -
Alexis Fretes Libertad Ativo 107 / 106 40% 1 31.03.2027 -
Tamerlan Musaev CSKA Moscow Ativo 132 / 129 40% 2 29.03.2027 -
Mohamed Mallahi Pro Vercelli Ativo 104 / 110 40% 3 29.03.2027 -
Yasin Özcan Aston Villa Ativo 115 / 116 40% 1 29.03.2027 -
Sam Parker Swansea City Ativo 101 / 105 40% 1 29.03.2027 -
Baltazar Blum Macías Stoke City Ativo 102 / 100 40% 1 29.03.2027 -
Filip Stojilković Pisa Ativo 119 / 125 40% 1 29.03.2027 -
Fernand Gouré Westerlo Ativo 111 / 104 40% 2 27.03.2027 -
Cédric Don Maccabi Haifa Ativo 117 / 136 40% 1 27.03.2027 -
Paul Glatzel Swindon Town Ativo 101 / 92 40% 1 27.03.2027 -
Fabio Abiuso Carrarese Ativo 113 / 111 40% 2 25.03.2027 -
Kaio Jorge Cruzeiro Ativo 137 / 149 40% 3 25.03.2027 -
Alex Tóth Bournemouth Ativo 127 / 131 40% 1 25.03.2027 -
Tylel Tati Monaco Ativo 121 / 123 40% 1 25.03.2027 -
Bahmed Deuff Olympique de Marseille Ativo 118 / 122 40% 2 23.03.2027 -
Mathis Amougou RC Strasbourg Ativo 104 / 126 40% 1 23.03.2027 -
Miguel Vegas Portuguesa Ativo 99 / 103 40% 1 23.03.2027 -
Sambou Soumano FC Lorient Ativo 122 / 127 40% 4 22.03.2027 -
Dardan Shabanhaxhaj Rubin Ativo 128 / 122 40% 3 22.03.2027 -
Elie N'Gatta Sochaux Ativo 97 / 106 40% 1 22.03.2027 -
Alejo Gelsomino Gimnasia La Plata Ativo 102 / 107 40% 1 22.03.2027 -
Sabil Hansen Randers Ativo 106 / 114 40% 1 22.03.2027 -
Midana Cassamá Portimonense Ativo 111 / 97 40% 1 22.03.2027 -
Elia Petrelli Forli Ativo 94 / 88 40% 2 21.03.2027 -
Manfred Ugalde Spartak Moscow Ativo 131 / 123 40% 1 21.03.2027 -
Slobodan Tedić Akron Ativo 116 / 110 40% 1 21.03.2027 -
Chris Rigg Sunderland Ativo 127 / 132 40% 1 20.03.2027 -
Matías Argüello Olimpia Ativo 99 / 112 40% 1 20.03.2027 -
Stiven Shpendi Empoli Ativo 115 / 128 40% 3 17.03.2027 -
Danila Shilov Dinamo Stavropol Ativo 93 / 88 40% 1 17.03.2027 -
Cemran Dansin Orlando Pirates Ativo 102 / 119 40% 2 16.03.2027 -
Agustín Bustinduy Central Norte Ativo 93 / 107 40% 1 16.03.2027 -
Maksim Samorodov Akhmat Grozny Ativo 132 / 120 40% 1 16.03.2027 -
Felipe Augusto Zenit Ativo 139 / 120 40% 1 14.03.2027 -
Cristian Shpendi Cesena Rejeitado 139 / 125 69% 2 13.03.2027 Rejeitar
Brayan Gil Baltika Ativo 121 / 120 40% 2 13.03.2027 -
Freddie Draper Lincoln City Ativo 105 / 116 40% 3 13.03.2027 -
Ekain Orobengoa Real Sociedad Ativo 102 / 111 40% 2 12.03.2027 -
Lewis McCann Fleetwood Town Ativo 100 / 105 40% 1 12.03.2027 -
Luis Vázquez Birmingham Ativo 133 / 120 40% 1 12.03.2027 -
Jack Vale Alcione Milano Ativo 91 / 95 40% 2 11.03.2027 -
Demián Troya Lanús Ativo 106 / 117 40% 2 11.03.2027 -
Obed Vargas Atlético Madrid Ativo 120 / 128 40% 1 10.03.2027 -
Thiago Silvero River Plate Ativo 115 / 128 40% 1 10.03.2027 -
Simone Ianesi Pianese Ativo 100 / 100 40% 4 09.03.2027 -
Morgan Whittaker Middlesbrough Ativo 135 / 123 40% 1 09.03.2027 -
Gilson Benchimol Akron Ativo 105 / 99 40% 2 08.03.2027 -
Miguel Falé Pacos de Ferreira Ativo 109 / 101 40% 1 08.03.2027 -
Jacques Siwe Rubin Ativo 115 / 121 40% 1 08.03.2027 -
Gonçalo Oliveira Benfica Ativo 109 / 118 40% 1 05.03.2027 -
Teun Gijselhart Deportivo La Coruña Ativo 100 / 106 40% 1 05.03.2027 -
Augusto Bando Ascoli Ativo 95 / 108 40% 1 04.03.2027 -
Albek Gongapshev Shinnik Ativo 97 / 88 40% 1 03.03.2027 -
Miro Dinamo Makhachkala Ativo 118 / 104 40% 2 27.02.2027 -
Milan Vidakov Radnicki 1923 Ativo 111 / 89 40% 2 24.02.2027 -
Kane Drummond Oldham Athletic Ativo 92 / 93 40% 1 24.02.2027 -
Job Ochieng Real Sociedad Ativo 99 / 105 40% 1 23.02.2027 -
Juan Manuel Boselli Krasnodar Ativo 134 / 110 40% 1 15.02.2027 -
Yegor Golenkov Rostov Ativo 115 / 113 40% 2 14.02.2027 -
Lassina Traoré Shakhtar Ativo 132 / 113 40% 2 10.02.2027 -
Pavel Meleshin Sochi Ativo 114 / 121 40% 1 10.02.2027 -
Mésaque Djú Portimonense Ativo 99 / 94 40% 1 06.02.2027 -
Luciano Gondou CSKA Moscow Ativo 139 / 127 40% 1 02.02.2027 -
Eguinaldo Shakhtar Ativo 119 / 144 40% 1 02.02.2027 -
Willem Geubbels Lecce Ativo 131 / 118 40% 1 23.01.2027 -
Mateo Fernández Angusht Ativo 69 / 68 40% 1 23.01.2027 -
Marco Rossello Probiy Ativo 91 / 91 40% 1 21.01.2027 -
Alexander Díaz Deportivo Riestra Ativo 116 / 120 40% 1 21.01.2027 -
David Romero Parma Ativo 117 / 136 40% 1 21.01.2027 -
Thierry Rendall Correia Venezia Ativo 134 / 147 40% 16 20.01.2027 -
Hugo Rincón Athletic Bilbao Ativo 139 / 141 40% 1 20.01.2027 -
Gabriel Sara Galatasaray Ativo 136 / 129 40% 5 18.01.2027 -
Edoardo Corvi Parma Perdido 127 / 132 69% 1 18.01.2027 -
Gustavo Mantuan Zenit Ativo 144 / 137 40% 1 18.01.2027 -
Arturo Cipriani Astra Ativo 141 / 130 40% 13 16.12.2026 -
Maxence Caqueret Como Ativo 127 / 141 40% 10 14.12.2026 -
Rodrigo Huescas FC Copenhagen Ativo 135 / 141 40% 4 30.11.2026 -
Diego Costa Krasnodar Ativo 124 / 128 40% 3 29.11.2026 -
Emanuele Valeri Parma Ativo 136 / 143 40% 1 27.11.2026 -
Gedson Fernandes Spartak Moscow Ativo 149 / 143 40% 1 11.11.2026 -
Pedro Malheiro Al Wasl Ativo 128 / 128 40% 4 08.11.2026 -
Mohamed Simakan Al-Nassr Ativo 128 / 136 40% 1 03.11.2026 -
Christos Zafeiris Galatasaray Ativo 141 / 150 40% 1 03.11.2026 -
Orkun Kökçü Besiktas Ativo 157 / 148 40% 1 14.10.2026 Mais informações
Odilon Kossounou Atalanta Ativo 148 / 150 40% 1 12.10.2026 -
Sampson Dweh Viktoria Plzen Ativo 128 / 123 40% 1 12.10.2026 -
İsmail Yüksek Fenerbahce Ativo 127 / 125 40% 1 09.10.2026 -
Federico Pereira Toluca Ativo 132 / 142 40% 1 08.10.2026 -
Sebastián Cáceres Club America Ativo 140 / 133 40% 1 05.10.2026 -
Yacine Adli Al-Shabab Ativo 128 / 129 40% 1 05.10.2026 -